sim
Sign-in with your pilot id or email,
or register
Callsign
Passwort

Schedule Details

Flight Number: DLH2027
Departure: Dusseldorf International Airport (EDDL) at 06:00
Arrival: Munich Airport (EDDM) at 07:10
Route: Lufthansa Passenger Schedule. Enter filed route here before submitting Pirep.

Weather Information
Getting current METAR information for EDDL 191220Z 09006KT 050V180 CAVOK 26/04 Q1017 NOSIG
Getting current METAR information for EDDM 191220Z 04004KT 320V070 CAVOK 21/12 Q1019 NOSIG

Schedule Frequency

Route Map